Reebok Ragnar Relay - Reach the Beach

Friday, September 15, 2017 5:05 AM (GMT-5) - Final results

Race info
Sport: Running - road
Location: Jefferson, NH, United States
Start type: Interval wave start
Wave grouping: Custom
Racers: 152
Timed on: iPad
Timed with: Webscorer PRO 2.8
Updated: Tuesday, October 3, 2017 8:12 AM (GMT-5)
Organized by: Reebok Ragnar Relay
Race website: https://www.runragnar.com/event-detail/relay/reachthebeach

Contact organizer

Use this form to send an email to the organizer.

Your name
Your email address
Confirm email address
Message to organizer
Send

Place Bib Racer name Category Finish time
142Kale And Quinwhaaat?Mixed 26:46:03.6--100%18.60%18.49%
29Fruit BasketsMixed 26:47:01.8+0:58.2+0.06%99.94%18.55%18.44%
36Uncle Filthys Scrambled LeggsMixed 27:34:27.7+48:24.1+3.01%97.07%16.15%16.04%
496Uncle Filthys Kissin CousinsMixed 27:51:53.3+1:05:49.7+4.10%96.06%15.27%15.15%
516We Got The RunsMixed 28:22:54.5+1:36:50.9+6.03%94.31%13.69%13.58%
686Blood Sweat & BeersMixed 28:33:05.5+1:47:01.9+6.66%93.75%13.18%13.06%
714The Muddy CalvesMixed 28:36:03.8+1:50:00.2+6.85%93.59%13.03%12.91%
8380Team RocketMixed 28:48:37.9+2:02:34.3+7.63%92.91%12.39%12.27%
9431Reach the BathroomMen 28:51:48.1+2:05:44.5+7.83%92.74%12.23%12.11%
1032Bushwacker Racing TeamMen 28:51:55.9+2:05:52.3+7.84%92.73%12.22%12.10%
11470Keeping Our Day JobsMixed 28:58:42.4+2:12:38.8+8.26%92.37%11.88%11.76%
12405Ultra Dead Last DucksMixed Ultra 29:08:03.3+2:21:59.7+8.84%91.88%11.41%11.29%
13127Nights WatchMixed 29:20:23.5+2:34:19.9+9.61%91.23%10.78%10.66%
14191Running PeepsMixed 29:33:51.7+2:47:48.1+10.45%90.54%10.10%9.98%
15115Bad Runners...Great Hockey!Mixed 29:39:38.6+2:53:35.0+10.81%90.25%9.81%9.68%
16351Cambridge Fire DepartmentMen 29:40:00.0+2:53:56.4+10.83%90.23%9.79%9.67%
17410The ClydesdalesMen 29:40:10.7+2:54:07.1+10.84%90.22%9.78%9.66%
18349CAA UltraMen Ultra 29:43:20.7+2:57:17.1+11.04%90.06%9.62%9.50%
19150Are We Out of the Woods Yet?Mixed 29:45:41.8+2:59:38.2+11.18%89.94%9.50%9.38%
20310HAIR OF THE DOG! PART DEUXMen Ultra 29:52:50.8+3:06:47.2+11.63%89.58%9.14%9.01%
21116Run Sleep or DriveMen 29:58:33.3+3:12:29.7+11.99%89.30%8.85%8.72%
22257Against Medical AdviceMen 30:09:32.5+3:23:28.9+12.67%88.76%8.29%8.17%
2310No Sleep Till HamptonMen 30:12:37.0+3:26:33.4+12.86%88.60%8.13%8.01%
24233Between a Walk and a Hard Pace_KwolekMixed 30:25:12.2+3:39:08.6+13.64%87.99%7.50%7.37%
25488NB Blind ChickenMen 30:28:44.4+3:42:40.8+13.86%87.82%7.32%7.19%
26221Molecular MisfitsMixed 30:29:29.8+3:43:26.2+13.91%87.79%7.28%7.15%
2725Dublin SchoolMen 30:30:26.2+3:44:22.6+13.97%87.74%7.23%7.11%
28443Speed KillsMixed 30:32:33.8+3:46:30.2+14.10%87.64%7.12%7.00%
29184Team ZachryMen 30:38:45.3+3:52:41.7+14.49%87.34%6.81%6.68%
30475HarpoonMen 30:40:04.7+3:54:01.1+14.57%87.28%6.74%6.62%
31490Cake WalkMixed 30:40:22.1+3:54:18.5+14.59%87.27%6.73%6.60%
32117Sole MatesMixed 30:47:07.4+4:01:03.8+15.01%86.95%6.39%6.26%
33136Syracuse 12-packMixed 30:47:51.7+4:01:48.1+15.06%86.91%6.35%6.22%
34394PERFECT STRANGERSMixed 30:48:52.8+4:02:49.2+15.12%86.87%6.30%6.17%
35391A Flock of SeagullsMen 30:56:57.6+4:10:54.0+15.62%86.49%5.89%5.76%
365FAT BETTYMixed Ultra 30:58:23.5+4:12:19.9+15.71%86.42%5.81%5.69%
37285Assorted DozenMixed 30:58:53.7+4:12:50.1+15.74%86.40%5.79%5.66%
38427Ground EffectMen 31:03:46.8+4:17:43.2+16.05%86.17%5.54%5.41%
39192Where the Rubber Meets the RhodeWomen 31:06:45.9+4:20:42.3+16.23%86.03%5.39%5.26%
40312The Pascagoula RunnersMixed 31:09:56.7+4:23:53.1+16.43%85.89%5.23%5.10%
4190Hurts So GoodMixed 31:13:54.5+4:27:50.9+16.68%85.71%5.03%4.90%
42378Slappin Da PaceMen Ultra 31:15:13.6+4:29:10.0+16.76%85.65%4.96%4.83%
43477Stupid Running FriendsMen 31:18:17.8+4:32:14.2+16.95%85.51%4.81%4.68%
44143Hoppy DazeMen 31:18:29.6+4:32:26.0+16.96%85.50%4.80%4.67%
45196Team FlannelMen 31:30:31.2+4:44:27.6+17.71%84.95%4.19%4.06%
46407Heat ChameleonsMen 31:37:12.9+4:51:09.3+18.13%84.65%3.85%3.72%
47364Shenanigans in the Van AgainMen 31:38:32.5+4:52:28.9+18.21%84.59%3.78%3.65%
48457RumRunnersMixed 31:40:00.9+4:53:57.3+18.30%84.53%3.70%3.57%
49290Hannahs Irish BombersMixed 31:43:43.0+4:57:39.4+18.53%84.36%3.52%3.39%
5085E. Norma SnockersWomen 31:44:48.0+4:58:44.4+18.60%84.32%3.46%3.33%
5143Rungry Like The WolfMen 31:48:10.6+5:02:07.0+18.81%84.17%3.29%3.16%
52222Miles Sweat and BeersMen 31:51:55.9+5:05:52.3+19.04%84.00%3.10%2.97%
53151#WeAreDumbMixed 31:53:28.1+5:07:24.5+19.14%83.93%3.02%2.89%
54280Meat Sweats & Mosquito BitesMixed 32:01:17.6+5:15:14.0+19.63%83.59%2.63%2.49%
55188GoGo GirlsWomen 32:04:34.6+5:18:31.0+19.83%83.45%2.46%2.33%
56421GuacamoleMixed 32:05:03.9+5:19:00.3+19.86%83.43%2.43%2.30%
5789Dancin With The CarsMixed 32:06:56.7+5:20:53.1+19.98%83.35%2.34%2.21%
5837Jeremys Bootcamp Team 1Mixed 32:08:59.7+5:22:56.1+20.11%83.26%2.24%2.10%
59228Crazy TrainMixed 32:14:07.8+5:28:04.2+20.43%83.04%1.98%1.84%
6059Hartfords & CompanyMen 32:14:22.0+5:28:18.4+20.44%83.03%1.96%1.83%
61212Hustle for that MuscleWomen 32:19:05.0+5:33:01.4+20.74%82.83%1.72%1.59%
6247212 Broke BatesiesWomen 32:19:52.4+5:33:48.8+20.78%82.79%1.68%1.55%
63393Changes in Latitude Changes in AttitudeMixed 32:20:26.0+5:34:22.4+20.82%82.77%1.66%1.52%
64318Run like the Wind/Pick up the PaceMixed 32:22:06.8+5:36:03.2+20.92%82.70%1.57%1.44%
6568SauceBossWingNutMen 32:24:06.4+5:38:02.8+21.05%82.61%1.47%1.34%
66164SharksWithFrickinLaserBeamsAttachedToTheMixed 32:27:34.9+5:41:31.3+21.26%82.46%1.29%1.16%
67306Ultra SlothsMen Ultra 32:28:54.0+5:42:50.4+21.35%82.41%1.23%1.09%
68432CrabLandersMen 32:33:27.1+5:47:23.5+21.63%82.22%1.00%0.86%
69362Running with the NightMixed 32:44:23.5+5:58:19.9+22.31%81.76%0.44%0.31%
70211Rogue Run: A Downhill StoryMixed 32:44:40.4+5:58:36.8+22.33%81.75%0.43%0.29%
71214�Carriage Town RunnersMixed 32:44:46.5+5:58:42.9+22.34%81.74%0.42%0.29%
72225Nevertheless They PersistedMixed 32:45:49.0+5:59:45.4+22.40%81.70%0.37%0.24%
7373Brew CrewMixed 32:45:53.6+5:59:50.0+22.40%81.70%0.37%0.23%
74373Cape CrusadersMen Ultra 32:47:59.6+6:01:56.0+22.54%81.61%0.26%0.12%
75347Team Mike McNeil - NESMixed 32:48:35.7+6:02:32.1+22.57%81.58%0.23%0.09%
76121Crazy BastardsMen 32:52:18.5+6:06:14.9+22.80%81.43%0.04%-0.09%
7748Blood Guts & GloryWomen 32:57:33.4+6:11:29.8+23.13%81.21%-0.23%-0.36%
78268Run like a CanadianMixed 33:00:16.2+6:14:12.6+23.30%81.10%-0.36%-0.50%
7913And again and again and again?!?Men 33:08:08.5+6:22:04.9+23.79%80.78%-0.76%-0.90%
80168Reebok Ragnarians 1 Wehawesome SauceMixed 33:10:37.1+6:24:33.5+23.94%80.68%-0.89%-1.02%
81194Just 4 FunMixed 33:12:07.7+6:26:04.1+24.04%80.62%-0.96%-1.10%
82114CPR (Cool People Running)Mixed 33:17:37.8+6:31:34.2+24.38%80.40%-1.24%-1.38%
8380Shepley BulfinchMixed 33:18:01.5+6:31:57.9+24.41%80.38%-1.26%-1.40%
84340Run Free or Die TryingMixed 33:18:31.7+6:32:28.1+24.44%80.36%-1.29%-1.42%
8552Beaches UnitedMixed 33:23:40.4+6:37:36.8+24.76%80.16%-1.55%-1.69%
8682Team RBFWomen 33:23:58.0+6:37:54.4+24.78%80.14%-1.56%-1.70%
87456We Smell Ultra BadMen Ultra 33:25:45.6+6:39:42.0+24.89%80.07%-1.65%-1.79%
8838Jeremys Bootcamp Team 2Mixed 33:26:00.2+6:39:56.6+24.90%80.06%-1.67%-1.80%
89243RTB 4 lyfe!Mixed 33:26:34.4+6:40:30.8+24.94%80.04%-1.70%-1.83%
90146Glaze OnMen 33:27:29.3+6:41:25.7+24.99%80.00%-1.74%-1.88%
91294Run Track MindsMixed 33:29:06.8+6:43:03.2+25.10%79.94%-1.82%-1.96%
92163Blood Guts and GloryMixed 33:36:22.8+6:50:19.2+25.55%79.65%-2.19%-2.33%
93219Nevertheless We PersistedMixed 33:38:20.4+6:52:16.8+25.67%79.57%-2.29%-2.43%
9487Foxy LadiesWomen 33:45:03.1+6:58:59.5+26.09%79.31%-2.63%-2.77%
95167Dump and RunMixed 33:47:14.9+7:01:11.3+26.22%79.22%-2.74%-2.88%
96419On the RocksMen 33:48:33.5+7:02:29.9+26.31%79.17%-2.81%-2.95%
97160Irish Feet Are Running AgainMen 33:49:41.6+7:03:38.0+26.38%79.13%-2.87%-3.01%
98454Reach The BeerMen 33:51:00.6+7:04:57.0+26.46%79.08%-2.93%-3.07%
9926The Knights who say Ni!Mixed 33:54:34.9+7:08:31.3+26.68%78.94%-3.12%-3.25%
100333Frequent FlyersMixed 33:56:01.4+7:09:57.8+26.77%78.88%-3.19%-3.33%
101461The MisfitsMixed 34:01:51.4+7:15:47.8+27.13%78.66%-3.48%-3.62%
102348--tbd--Men 34:07:58.1+7:21:54.5+27.52%78.42%-3.79%-3.93%
103374Undertrained & OverconfidentMixed 34:09:43.6+7:23:40.0+27.62%78.35%-3.88%-4.02%
104403Flocking FlamingosMixed 34:16:06.4+7:30:02.8+28.02%78.11%-4.21%-4.35%
105138Suck It Up Buttercup!Men 34:16:36.2+7:30:32.6+28.05%78.09%-4.23%-4.37%
106149Monsters of the Midway...Wait Were Only Mixed 34:19:11.4+7:33:07.8+28.21%77.99%-4.36%-4.50%
107368We B.E.E.RMen 34:21:00.3+7:34:56.7+28.33%77.93%-4.45%-4.60%
107369We B.E.E.R tooMen 34:21:00.3+7:34:56.7+28.33%77.93%-4.45%-4.60%
109342Resting Beach FacesMixed 34:21:48.2+7:35:44.6+28.38%77.90%-4.50%-4.64%
110207Keeping Up with the KidsMixed 34:24:14.1+7:38:10.5+28.53%77.80%-4.62%-4.76%
11154Need for SpeedMixed 34:24:21.7+7:38:18.1+28.54%77.80%-4.62%-4.77%
112135The Running DeadMen 34:28:22.8+7:42:19.2+28.79%77.65%-4.83%-4.97%
11397Just Keep RunningMixed 34:31:32.3+7:45:28.7+28.98%77.53%-4.99%-5.13%
114237Red Threaded Step ChildrenMen 34:32:10.2+7:46:06.6+29.02%77.51%-5.02%-5.16%
115424This Game of Tag SucksMixed 34:33:16.9+7:47:13.3+29.09%77.46%-5.08%-5.22%
116433NES Heroes Vs. VilliansMixed 34:38:40.8+7:52:37.2+29.43%77.26%-5.35%-5.49%
117476Vans on the RunWomen 34:38:47.3+7:52:43.7+29.43%77.26%-5.36%-5.50%
11835Where the Wild Things RunMen 34:38:51.2+7:52:47.6+29.44%77.26%-5.36%-5.50%
119154Kiss My AsphaltWomen 34:40:13.2+7:54:09.6+29.52%77.21%-5.43%-5.57%
120366Everybodys On the RunMen 34:41:47.3+7:55:43.7+29.62%77.15%-5.51%-5.65%
121319Just Run With ItMixed 34:43:03.4+7:56:59.8+29.70%77.10%-5.57%-5.71%
122236BOB SHOULD BE HERE!!Men 34:47:10.5+8:01:06.9+29.96%76.95%-5.78%-5.92%
123489I Want My MTV (Medal Tee-Shirt & VictoryWomen 34:52:34.8+8:06:31.2+30.29%76.75%-6.06%-6.20%
124467Blood Sweat & Beers_SnowmanMixed 34:54:07.5+8:08:03.9+30.39%76.69%-6.13%-6.28%
125112KARL STORZ Endomaniacs 1Men 35:02:16.4+8:16:12.8+30.90%76.40%-6.55%-6.69%
126145120 ToesMixed 35:02:28.1+8:16:24.5+30.91%76.39%-6.56%-6.70%
127350No Sleep Til Hampton!Women 35:05:30.6+8:19:27.0+31.10%76.28%-6.71%-6.85%
128113KARL STORZ Endomaniacs 2Men 35:14:34.7+8:28:31.1+31.66%75.95%-7.17%-7.31%
12976#youareitMixed 35:18:33.8+8:32:30.2+31.91%75.81%-7.37%-7.52%
130429irish Feet Are Running AgainWomen 35:28:11.0+8:42:07.4+32.51%75.47%-7.86%-8.00%
131200Resting Beach Face_HarringtonMixed 35:29:27.4+8:43:23.8+32.59%75.42%-7.92%-8.07%
132325NSKA- Dont Think Just DoMixed 35:37:21.9+8:51:18.3+33.08%75.14%-8.32%-8.47%
13346Rock Your BodyMixed 35:37:59.6+8:51:56.0+33.12%75.12%-8.36%-8.50%
134293The KingstoniansMixed 35:39:04.8+8:53:01.2+33.19%75.08%-8.41%-8.56%
13565Dozen Eggs with Legs!Men 35:41:13.6+8:55:10.0+33.32%75.01%-8.52%-8.67%
136204Sisters by RelaytionWomen 35:45:32.2+8:59:28.6+33.59%74.86%-8.74%-8.89%
137478The Stampeding TurtlesMen 35:50:59.2+9:04:55.6+33.93%74.67%-9.02%-9.16%
138100Griswold Family RagnarMen 35:55:26.7+9:09:23.1+34.21%74.51%-9.24%-9.39%
139215SLOW BUT NOT STEADYMixed 36:27:54.8+9:41:51.2+36.23%73.41%-10.89%-11.04%
140158Well Catch Up With You LaterMen 36:34:23.2+9:48:19.6+36.63%73.19%-11.21%-11.36%
141288Bucket ListersMixed 36:41:24.0+9:55:20.4+37.07%72.96%-11.57%-11.72%
142271Bunch of BoobsMixed 36:47:07.9+10:01:04.3+37.43%72.77%-11.86%-12.01%
14341Between a Walk and a Hard PaceMixed 36:51:04.8+10:05:01.2+37.67%72.64%-12.06%-12.21%
144175RagnerdsMixed 36:54:50.2+10:08:46.6+37.90%72.51%-12.25%-12.40%
145246TCRC PEEPSMixed 37:08:43.3+10:22:39.7+38.77%72.06%-12.95%-13.11%
146201UnleashedMen 37:14:10.2+10:28:06.6+39.11%71.89%-13.23%-13.38%
147422Gonna Get Beach Slapped!!Men 39:18:58.9+12:32:55.3+46.88%68.08%-19.56%-19.72%
148277Sole Sisters And A MisterMen 41:16:38.8+14:30:35.2+54.21%64.85%-25.52%-25.69%
149464Nuts N HoneysMixed 41:16:54.3+14:30:50.7+54.22%64.84%-25.53%-25.70%
150383Beach Better Have My MedalMen 41:17:17.4+14:31:13.8+54.25%64.83%-25.55%-25.72%
-370Wishin We Had ChickenMen DNF-----
-389NES Hitchhikers Guide to RagnarMixed DNF-----